Terminal Aerodrome Forecast
Issued by NWS

Home | Current Version | Previous Version | Text Only | Print | Product List | Glossary On
Versions: 1 2 3 4 5 6 7 8 9 10 11 12 13 14
000
FTUS43 KOAX 252339
TAFSNY
TAF
KSNY 252339Z 2600/2624 14012KT P6SM BKN070
     FM260200 18006KT P6SM SKC
     FM260400 VRB05KT P6SM SKC=

USA.gov is the U.S. government's official web portal to all federal, state and local government web resources and services.